Time;durP1;ratioP1;P1;durP2;ratioP2;P2;SDS_P1;SDS_P2;PMS_P1;PMS_P2;Temp;Humidity;BMP_temperature;BMP_pressure;BME280_temperature;BME280_humidity;BME280_pressure;Samples;Min_cycle;Max_cycle;Signal;HPM_P1;HPM_P2
2022/01/15 00:01:49;;;;;;;0.55;0.10;;;;;;;;;;4197116;28;20485;-35
2022/01/15 00:03:50;;;;;;;0.00;0.00;;;;;;;;;;4197245;28;20044;-34
2022/01/15 00:05:51;;;;;;;0.20;0.10;;;;;;;;;;4197185;28;20098;-35
2022/01/15 00:07:52;;;;;;;0.00;0.00;;;;;;;;;;4196823;28;20473;-34
2022/01/15 00:09:53;;;;;;;0.15;0.10;;;;;;;;;;4197344;28;20094;-34
2022/01/15 00:11:54;;;;;;;0.52;0.10;;;;;;;;;;4196008;28;20084;-33
2022/01/15 00:13:58;;;;;;;0.00;0.00;;;;;;;;;;4197470;28;20048;-36
2022/01/15 00:16:09;;;;;;;0.40;0.00;;;;;;;;;;4197742;28;20053;-33
2022/01/15 00:18:13;;;;;;;0.70;0.10;;;;;;;;;;4197306;28;20106;-36
2022/01/15 00:20:16;;;;;;;0.30;0.10;;;;;;;;;;4197101;28;20056;-39
2022/01/15 00:22:18;;;;;;;0.10;0.10;;;;;;;;;;4196672;28;20480;-37
2022/01/15 00:24:19;;;;;;;0.00;0.00;;;;;;;;;;4196949;28;20052;-34
2022/01/15 00:26:20;;;;;;;0.90;0.10;;;;;;;;;;4197088;28;20099;-38
2022/01/15 00:28:21;;;;;;;0.05;0.05;;;;;;;;;;4195963;28;20134;-33
2022/01/15 00:30:22;;;;;;;0.22;0.10;;;;;;;;;;4197116;28;20048;-34
2022/01/15 00:32:23;;;;;;;0.13;0.10;;;;;;;;;;4197083;28;20086;-36
2022/01/15 00:34:24;;;;;;;0.00;0.00;;;;;;;;;;4197114;28;20515;-34
2022/01/15 00:36:25;;;;;;;0.35;0.20;;;;;;;;;;4197276;28;20102;-35
2022/01/15 00:38:26;;;;;;;0.00;0.00;;;;;;;;;;4198287;28;20061;-33
2022/01/15 00:40:27;;;;;;;0.85;0.08;;;;;;;;;;4200456;28;20080;-34
2022/01/15 00:42:29;;;;;;;0.17;0.10;;;;;;;;;;4200031;28;20114;-36
2022/01/15 00:44:30;;;;;;;0.00;0.00;;;;;;;;;;4200113;28;20057;-36
2022/01/15 00:46:31;;;;;;;0.05;0.00;;;;;;;;;;4200088;28;20369;-38
2022/01/15 00:48:32;;;;;;;0.20;0.10;;;;;;;;;;4199854;28;20052;-37
2022/01/15 00:50:33;;;;;;;0.03;0.00;;;;;;;;;;4199984;28;20048;-32
2022/01/15 00:52:35;;;;;;;0.10;0.10;;;;;;;;;;4199434;28;20481;-37
2022/01/15 00:54:36;;;;;;;0.20;0.08;;;;;;;;;;4199984;28;20052;-36
2022/01/15 00:56:37;;;;;;;0.20;0.20;;;;;;;;;;4200206;28;20048;-34
2022/01/15 00:58:38;;;;;;;0.15;0.10;;;;;;;;;;4199811;28;20049;-35
2022/01/15 01:00:40;;;;;;;0.43;0.10;;;;;;;;;;4199892;28;20451;-32
2022/01/15 01:02:41;;;;;;;0.10;0.10;;;;;;;;;;4199942;28;20044;-32
2022/01/15 01:04:42;;;;;;;0.10;0.00;;;;;;;;;;4200350;28;20052;-32
2022/01/15 01:06:43;;;;;;;0.10;0.10;;;;;;;;;;4199763;28;20381;-33
2022/01/15 01:08:44;;;;;;;0.25;0.10;;;;;;;;;;4200102;28;20103;-35
2022/01/15 01:24:15;;;;;;;0.00;0.00;;;;;;;;;;4199384;28;20068;-35
2022/01/15 01:26:28;;;;;;;0.08;0.05;;;;;;;;;;4199682;28;20094;-38
2022/01/15 01:28:34;;;;;;;0.32;0.10;;;;;;;;;;4199410;28;20480;-33
2022/01/15 01:30:51;;;;;;;0.10;0.10;;;;;;;;;;4198479;28;20064;-34
2022/01/15 01:33:03;;;;;;;0.20;0.00;;;;;;;;;;4199230;28;20047;-35
2022/01/15 01:35:10;;;;;;;0.45;0.10;;;;;;;;;;4199456;28;20059;-36
2022/01/15 01:37:33;;;;;;;0.00;0.00;;;;;;;;;;4198865;28;20481;-38
2022/01/15 01:42:03;;;;;;;0.32;0.10;;;;;;;;;;4199230;28;20052;-38
2022/01/15 01:44:04;;;;;;;;;;;;;;;;;;4199774;28;20060;-33
2022/01/15 01:46:34;;;;;;;0.00;0.00;;;;;;;;;;4199513;28;19920;-37
2022/01/15 01:48:35;;;;;;;0.35;0.10;;;;;;;;;;4197470;28;20413;-34
2022/01/15 01:50:36;;;;;;;0.20;0.10;;;;;;;;;;4198148;28;20056;-33
2022/01/15 01:52:37;;;;;;;0.17;0.00;;;;;;;;;;4198590;28;20087;-37
2022/01/15 01:54:38;;;;;;;0.22;0.20;;;;;;;;;;4198971;28;20048;-37
2022/01/15 01:56:40;;;;;;;0.15;0.10;;;;;;;;;;4199149;28;20052;-36
2022/01/15 01:58:41;;;;;;;0.28;0.10;;;;;;;;;;4199020;28;20493;-36
2022/01/15 02:00:42;;;;;;;0.73;0.10;;;;;;;;;;4199116;28;20056;-36
2022/01/15 02:02:43;;;;;;;0.17;0.05;;;;;;;;;;4198992;28;20109;-33
2022/01/15 02:04:44;;;;;;;0.38;0.10;;;;;;;;;;4198989;28;20052;-35
2022/01/15 02:06:45;;;;;;;0.50;0.20;;;;;;;;;;4198387;28;20479;-36
2022/01/15 02:08:47;;;;;;;0.00;0.00;;;;;;;;;;4198977;28;20515;-38
2022/01/15 02:10:49;;;;;;;0.10;0.10;;;;;;;;;;4198720;28;20049;-38
2022/01/15 02:12:51;;;;;;;0.20;0.10;;;;;;;;;;4198820;28;20067;-39
2022/01/15 02:14:52;;;;;;;0.13;0.10;;;;;;;;;;4199003;28;20053;-37
2022/01/15 02:16:53;;;;;;;0.20;0.05;;;;;;;;;;4198565;28;20053;-33
2022/01/15 02:18:54;;;;;;;0.75;0.10;;;;;;;;;;4198931;28;20053;-38
2022/01/15 02:23:32;;;;;;;0.40;0.10;;;;;;;;;;4198510;28;20378;-33
2022/01/15 02:23:35;;;;;;;0.75;0.10;;;;;;;;;;4197952;28;20485;-37
2022/01/15 02:25:43;;;;;;;0.10;0.10;;;;;;;;;;4198656;28;20484;-36
2022/01/15 02:27:45;;;;;;;0.10;0.03;;;;;;;;;;4198738;28;20053;-39
2022/01/15 02:29:46;;;;;;;0.65;0.10;;;;;;;;;;4198550;28;20045;-34
2022/01/15 02:31:46;;;;;;;0.30;0.10;;;;;;;;;;4198229;28;20523;-36
2022/01/15 02:33:48;;;;;;;0.30;0.10;;;;;;;;;;4198458;28;20132;-33
2022/01/15 02:35:50;;;;;;;0.28;0.08;;;;;;;;;;4198407;28;20048;-35
2022/01/15 02:37:51;;;;;;;0.28;0.10;;;;;;;;;;4198044;28;20554;-35
2022/01/15 02:39:52;;;;;;;0.17;0.10;;;;;;;;;;4198212;28;20053;-35
2022/01/15 02:41:53;;;;;;;0.55;0.10;;;;;;;;;;4198330;28;20121;-35
2022/01/15 02:43:54;;;;;;;0.00;0.00;;;;;;;;;;4198435;28;20060;-37
2022/01/15 02:45:56;;;;;;;0.40;0.10;;;;;;;;;;4198080;28;20052;-35
2022/01/15 02:48:00;;;;;;;0.43;0.15;;;;;;;;;;4198016;28;20425;-39
2022/01/15 02:50:01;;;;;;;0.38;0.10;;;;;;;;;;4198310;28;20373;-35
2022/01/15 02:52:02;;;;;;;0.17;0.03;;;;;;;;;;4196401;28;20099;-34
2022/01/15 02:54:04;;;;;;;0.73;0.10;;;;;;;;;;4198045;28;20136;-34
2022/01/15 02:56:05;;;;;;;0.22;0.00;;;;;;;;;;4198010;28;20056;-38
2022/01/15 02:58:06;;;;;;;0.03;0.00;;;;;;;;;;4197933;28;20506;-32
2022/01/15 03:00:07;;;;;;;0.10;0.00;;;;;;;;;;4197846;28;20506;-34
2022/01/15 03:02:08;;;;;;;0.30;0.10;;;;;;;;;;4197692;28;20093;-35
2022/01/15 03:04:09;;;;;;;0.30;0.10;;;;;;;;;;4198422;28;20060;-32
2022/01/15 03:06:11;;;;;;;0.08;0.00;;;;;;;;;;4197912;28;20215;-39
2022/01/15 03:08:12;;;;;;;0.45;0.25;;;;;;;;;;4197430;28;20370;-32
2022/01/15 03:10:13;;;;;;;0.47;0.10;;;;;;;;;;4197879;28;20056;-34
2022/01/15 03:12:14;;;;;;;0.22;0.10;;;;;;;;;;4197617;28;20578;-35
2022/01/15 03:14:19;;;;;;;0.28;0.10;;;;;;;;;;4198032;28;20056;-34
2022/01/15 03:16:20;;;;;;;0.65;0.25;;;;;;;;;;4197707;28;20435;-36
2022/01/15 03:18:22;;;;;;;0.55;0.25;;;;;;;;;;4197801;28;20098;-35
2022/01/15 03:20:23;;;;;;;0.52;0.15;;;;;;;;;;4197647;28;20070;-34
2022/01/15 03:22:24;;;;;;;0.25;0.10;;;;;;;;;;4195881;28;20466;-35
2022/01/15 03:24:25;;;;;;;0.30;0.10;;;;;;;;;;4197558;28;20089;-34
2022/01/15 03:26:26;;;;;;;0.10;0.08;;;;;;;;;;4197616;28;20053;-35
2022/01/15 03:28:27;;;;;;;0.30;0.10;;;;;;;;;;4197465;28;20503;-35
2022/01/15 03:30:28;;;;;;;0.10;0.10;;;;;;;;;;4197750;28;20118;-35
2022/01/15 03:32:28;;;;;;;0.73;0.10;;;;;;;;;;4197677;28;20095;-36
2022/01/15 03:34:29;;;;;;;0.38;0.10;;;;;;;;;;4197701;28;20149;-37
2022/01/15 03:36:30;;;;;;;0.40;0.10;;;;;;;;;;4197580;28;20060;-35
2022/01/15 03:38:31;;;;;;;0.20;0.00;;;;;;;;;;4196833;28;20132;-36
2022/01/15 03:40:33;;;;;;;0.10;0.10;;;;;;;;;;4197572;28;20056;-34
2022/01/15 03:42:34;;;;;;;0.45;0.10;;;;;;;;;;4197591;28;20060;-33
2022/01/15 03:44:35;;;;;;;0.10;0.00;;;;;;;;;;4197384;28;20331;-33
2022/01/15 03:46:36;;;;;;;0.25;0.13;;;;;;;;;;4197357;28;20091;-35
2022/01/15 03:48:37;;;;;;;0.30;0.10;;;;;;;;;;4197153;28;20089;-35
2022/01/15 03:50:38;;;;;;;0.88;0.10;;;;;;;;;;4196245;28;20094;-34
2022/01/15 03:52:39;;;;;;;0.10;0.10;;;;;;;;;;4197158;28;20102;-35
2022/01/15 03:54:40;;;;;;;0.55;0.15;;;;;;;;;;4197292;28;20078;-37
2022/01/15 03:56:41;;;;;;;0.30;0.10;;;;;;;;;;4197298;28;20052;-34
2022/01/15 03:58:42;;;;;;;0.00;0.00;;;;;;;;;;4197186;28;20056;-38
2022/01/15 04:00:43;;;;;;;0.30;0.10;;;;;;;;;;4197155;28;20480;-35
2022/01/15 04:02:44;;;;;;;0.10;0.08;;;;;;;;;;4197499;28;20060;-35
2022/01/15 04:04:45;;;;;;;0.30;0.15;;;;;;;;;;4197357;28;20056;-37
2022/01/15 04:06:46;;;;;;;0.30;0.10;;;;;;;;;;4195455;28;20467;-34
2022/01/15 04:08:47;;;;;;;0.00;0.00;;;;;;;;;;4197568;28;20147;-35
2022/01/15 04:10:48;;;;;;;0.50;0.10;;;;;;;;;;4197582;28;20051;-37
2022/01/15 04:12:49;;;;;;;0.15;0.10;;;;;;;;;;4198248;28;20503;-36
2022/01/15 04:14:50;;;;;;;0.00;0.00;;;;;;;;;;4200677;28;20496;-37
2022/01/15 04:16:51;;;;;;;0.10;0.10;;;;;;;;;;4200422;28;20095;-36
2022/01/15 04:18:52;;;;;;;0.73;0.20;;;;;;;;;;4200620;28;20109;-32
2022/01/15 04:20:52;;;;;;;0.25;0.10;;;;;;;;;;4200574;28;20053;-36
2022/01/15 04:22:53;;;;;;;0.30;0.10;;;;;;;;;;4199888;28;20052;-33
2022/01/15 04:24:54;;;;;;;0.10;0.00;;;;;;;;;;4200843;28;20068;-34
2022/01/15 04:26:55;;;;;;;0.10;0.10;;;;;;;;;;4200518;28;20083;-36
2022/01/15 04:29:05;;;;;;;0.17;0.10;;;;;;;;;;4200483;28;20369;-33
2022/01/15 04:31:07;;;;;;;0.00;0.00;;;;;;;;;;4200653;28;20086;-37
2022/01/15 04:33:08;;;;;;;0.47;0.10;;;;;;;;;;4200412;28;20381;-35
2022/01/15 04:35:09;;;;;;;0.10;0.10;;;;;;;;;;4200589;28;20095;-34
2022/01/15 04:37:17;;;;;;;0.38;0.20;;;;;;;;;;4199891;28;20048;-36
2022/01/15 04:39:18;;;;;;;0.35;0.20;;;;;;;;;;4200334;28;20480;-32
2022/01/15 04:41:19;;;;;;;0.10;0.10;;;;;;;;;;4200307;28;20057;-35
2022/01/15 04:43:20;;;;;;;0.10;0.00;;;;;;;;;;4200179;28;20060;-33
2022/01/15 04:45:21;;;;;;;0.20;0.10;;;;;;;;;;4200173;28;20094;-35
2022/01/15 04:47:22;;;;;;;0.10;0.10;;;;;;;;;;4199904;28;20083;-35
2022/01/15 04:49:23;;;;;;;0.30;0.10;;;;;;;;;;4200280;28;20049;-33
2022/01/15 04:51:24;;;;;;;0.63;0.10;;;;;;;;;;4200026;28;20052;-38
2022/01/15 04:53:25;;;;;;;0.35;0.10;;;;;;;;;;4199483;28;20412;-33
2022/01/15 04:55:26;;;;;;;0.30;0.10;;;;;;;;;;4199880;28;20096;-35
2022/01/15 04:57:27;;;;;;;0.22;0.10;;;;;;;;;;4199845;28;20052;-35
2022/01/15 04:59:28;;;;;;;0.55;0.10;;;;;;;;;;4200002;28;20052;-35
2022/01/15 05:01:29;;;;;;;0.32;0.15;;;;;;;;;;4198694;28;20063;-34
2022/01/15 05:03:32;;;;;;;0.10;0.10;;;;;;;;;;4200056;28;20044;-32
2022/01/15 05:05:33;;;;;;;0.22;0.10;;;;;;;;;;4199950;28;20089;-37
2022/01/15 05:07:33;;;;;;;0.10;0.10;;;;;;;;;;4199293;28;20128;-36
2022/01/15 05:09:34;;;;;;;0.00;0.00;;;;;;;;;;4199933;28;20052;-35
2022/01/15 05:12:20;;;;;;;0.65;0.10;;;;;;;;;;4199579;28;20430;-34
2022/01/15 05:14:04;;;;;;;0.40;0.20;;;;;;;;;;4199473;28;20052;-36
2022/01/15 05:16:05;;;;;;;0.20;0.10;;;;;;;;;;4199714;28;20486;-34
2022/01/15 05:18:06;;;;;;;0.10;0.10;;;;;;;;;;4199857;28;20056;-37
2022/01/15 05:20:08;;;;;;;0.08;0.08;;;;;;;;;;4199677;28;20091;-34
2022/01/15 05:22:09;;;;;;;0.28;0.10;;;;;;;;;;4199335;28;20049;-34
2022/01/15 05:24:10;;;;;;;0.00;0.00;;;;;;;;;;4199268;28;20488;-42
2022/01/15 05:26:11;;;;;;;0.30;0.13;;;;;;;;;;4199871;28;20170;-37
2022/01/15 05:28:12;;;;;;;0.40;0.10;;;;;;;;;;4199532;28;20105;-36
2022/01/15 05:30:13;;;;;;;0.17;0.10;;;;;;;;;;4199528;28;20481;-34
2022/01/15 05:32:15;;;;;;;0.22;0.20;;;;;;;;;;4199465;28;20444;-34
2022/01/15 05:34:16;;;;;;;0.40;0.10;;;;;;;;;;4199459;28;20040;-36
2022/01/15 05:36:17;;;;;;;0.15;0.00;;;;;;;;;;4199697;28;20102;-33
2022/01/15 05:38:18;;;;;;;0.17;0.10;;;;;;;;;;4199147;28;20110;-33
2022/01/15 05:40:18;;;;;;;0.25;0.10;;;;;;;;;;4199447;28;20467;-34
2022/01/15 05:42:20;;;;;;;0.28;0.10;;;;;;;;;;4199725;28;20545;-36
2022/01/15 05:44:21;;;;;;;0.20;0.10;;;;;;;;;;4199588;28;20045;-34
2022/01/15 05:46:22;;;;;;;0.20;0.10;;;;;;;;;;4199248;28;20488;-33
2022/01/15 05:48:23;;;;;;;0.32;0.10;;;;;;;;;;4197827;28;20056;-33
2022/01/15 05:50:24;;;;;;;0.32;0.10;;;;;;;;;;4199272;28;20447;-34
2022/01/15 05:52:25;;;;;;;0.38;0.10;;;;;;;;;;4198642;28;20052;-34
2022/01/15 05:54:25;;;;;;;0.88;0.10;;;;;;;;;;4199064;28;20102;-35
2022/01/15 05:56:27;;;;;;;0.47;0.10;;;;;;;;;;4199148;28;20099;-36
2022/01/15 05:58:28;;;;;;;0.22;0.10;;;;;;;;;;4199077;28;20127;-34
2022/01/15 06:00:28;;;;;;;0.52;0.00;;;;;;;;;;4199105;28;20428;-34
2022/01/15 06:02:29;;;;;;;0.15;0.10;;;;;;;;;;4199067;28;20546;-36
2022/01/15 06:04:31;;;;;;;0.20;0.00;;;;;;;;;;4199268;28;20052;-36
2022/01/15 06:06:32;;;;;;;0.47;0.10;;;;;;;;;;4198966;28;20052;-35
2022/01/15 06:08:32;;;;;;;0.10;0.10;;;;;;;;;;4198538;28;20519;-36
2022/01/15 06:10:34;;;;;;;0.60;0.10;;;;;;;;;;4198931;28;20091;-35
2022/01/15 06:12:42;;;;;;;0.30;0.00;;;;;;;;;;4198776;28;20487;-36
2022/01/15 06:14:43;;;;;;;0.47;0.10;;;;;;;;;;4199046;28;20053;-34
2022/01/15 06:16:44;;;;;;;0.00;0.00;;;;;;;;;;4198686;28;20455;-37
2022/01/15 06:18:45;;;;;;;0.47;0.17;;;;;;;;;;4198907;28;20051;-36
2022/01/15 06:20:46;;;;;;;0.30;0.10;;;;;;;;;;4197614;28;20083;-32
2022/01/15 06:22:47;;;;;;;0.30;0.20;;;;;;;;;;4197854;28;20472;-33
2022/01/15 06:24:48;;;;;;;0.10;0.00;;;;;;;;;;4198659;28;20086;-34
2022/01/15 06:26:49;;;;;;;0.03;0.00;;;;;;;;;;4198521;28;20374;-35
2022/01/15 06:28:50;;;;;;;0.20;0.10;;;;;;;;;;4198574;28;20094;-35
2022/01/15 06:30:51;;;;;;;0.00;0.00;;;;;;;;;;4198516;28;20169;-36
2022/01/15 06:32:52;;;;;;;0.17;0.05;;;;;;;;;;4198629;28;20052;-33
2022/01/15 06:34:53;;;;;;;0.30;0.00;;;;;;;;;;4198334;28;20056;-38
2022/01/15 06:36:55;;;;;;;0.20;0.10;;;;;;;;;;4197353;28;20488;-33
2022/01/15 06:38:55;;;;;;;0.65;0.20;;;;;;;;;;4198590;28;20136;-33
2022/01/15 06:40:56;;;;;;;0.17;0.10;;;;;;;;;;4198199;28;20101;-38
2022/01/15 06:42:58;;;;;;;0.30;0.13;;;;;;;;;;4198335;28;20074;-34
2022/01/15 06:44:59;;;;;;;0.80;0.43;;;;;;;;;;4198513;28;20056;-34
2022/01/15 06:47:00;;;;;;;0.60;0.10;;;;;;;;;;4198089;28;20053;-37
2022/01/15 06:49:00;;;;;;;0.10;0.00;;;;;;;;;;4198146;28;20539;-35
2022/01/15 06:51:02;;;;;;;0.10;0.00;;;;;;;;;;4198159;28;20075;-35
2022/01/15 06:53:03;;;;;;;0.35;0.10;;;;;;;;;;4196383;28;20041;-32
2022/01/15 06:55:05;;;;;;;0.45;0.20;;;;;;;;;;4198403;28;20110;-34
2022/01/15 06:57:06;;;;;;;0.00;0.00;;;;;;;;;;4198172;28;20048;-33
2022/01/15 06:59:06;;;;;;;0.17;0.10;;;;;;;;;;4198012;28;20550;-33
2022/01/15 07:01:07;;;;;;;0.40;0.20;;;;;;;;;;4197922;28;20095;-37
2022/01/15 07:03:08;;;;;;;0.20;0.10;;;;;;;;;;4198185;28;20056;-34
2022/01/15 07:05:09;;;;;;;1.23;0.10;;;;;;;;;;4198002;28;20053;-34
2022/01/15 07:07:10;;;;;;;0.40;0.10;;;;;;;;;;4197588;28;20044;-37
2022/01/15 07:09:11;;;;;;;0.35;0.20;;;;;;;;;;4198210;28;20460;-35
2022/01/15 07:11:12;;;;;;;0.65;0.10;;;;;;;;;;4198221;28;20610;-34
2022/01/15 07:13:13;;;;;;;1.75;0.10;;;;;;;;;;4197782;28;20056;-37
2022/01/15 07:15:14;;;;;;;0.47;0.15;;;;;;;;;;4197873;28;20126;-36
2022/01/15 07:17:15;;;;;;;0.30;0.10;;;;;;;;;;4197674;28;20488;-33
2022/01/15 07:19:16;;;;;;;0.47;0.22;;;;;;;;;;4197644;28;20389;-33
2022/01/15 07:21:17;;;;;;;0.00;0.00;;;;;;;;;;4197609;28;20131;-36
2022/01/15 07:23:19;;;;;;;0.28;0.08;;;;;;;;;;4196896;28;20405;-32
2022/01/15 07:25:20;;;;;;;0.10;0.00;;;;;;;;;;4197705;28;20121;-33
2022/01/15 07:27:21;;;;;;;0.55;0.10;;;;;;;;;;4196258;28;20485;-40
2022/01/15 07:29:24;;;;;;;0.10;0.10;;;;;;;;;;4197589;28;20049;-33
2022/01/15 07:31:25;;;;;;;0.45;0.10;;;;;;;;;;4197564;28;20056;-36
2022/01/15 07:33:26;;;;;;;0.10;0.00;;;;;;;;;;4197574;28;20059;-39
2022/01/15 07:35:27;;;;;;;0.20;0.10;;;;;;;;;;4197799;28;20084;-36
2022/01/15 07:37:29;;;;;;;0.25;0.05;;;;;;;;;;4197231;28;20056;-35
2022/01/15 07:39:30;;;;;;;0.00;0.00;;;;;;;;;;4197664;28;20052;-34
2022/01/15 07:41:31;;;;;;;0.22;0.10;;;;;;;;;;4197399;28;20053;-34
2022/01/15 07:43:37;;;;;;;0.30;0.10;;;;;;;;;;4196408;28;20048;-37
2022/01/15 07:45:37;;;;;;;0.32;0.10;;;;;;;;;;4197739;28;20513;-37
2022/01/15 07:47:39;;;;;;;0.17;0.10;;;;;;;;;;4197245;28;20048;-34
2022/01/15 07:49:40;;;;;;;0.15;0.10;;;;;;;;;;4197313;28;20049;-36
2022/01/15 07:51:41;;;;;;;0.00;0.00;;;;;;;;;;4197166;28;20102;-38
2022/01/15 07:53:42;;;;;;;0.20;0.10;;;;;;;;;;4197367;28;20056;-34
2022/01/15 07:55:43;;;;;;;0.10;0.10;;;;;;;;;;4197405;28;20173;-39
2022/01/15 07:57:45;;;;;;;0.10;0.00;;;;;;;;;;4197394;28;20131;-34
2022/01/15 07:59:46;;;;;;;0.32;0.10;;;;;;;;;;4197636;28;20056;-35
2022/01/15 08:01:47;;;;;;;0.00;0.00;;;;;;;;;;4197227;28;20116;-34
2022/01/15 08:03:48;;;;;;;0.75;0.10;;;;;;;;;;4197398;28;20052;-33
2022/01/15 08:05:50;;;;;;;0.17;0.00;;;;;;;;;;4197740;28;20532;-37
2022/01/15 08:07:51;;;;;;;0.28;0.17;;;;;;;;;;4195783;28;20492;-36
2022/01/15 08:09:52;;;;;;;0.73;0.10;;;;;;;;;;4197558;28;20051;-34
2022/01/15 08:11:53;;;;;;;0.10;0.00;;;;;;;;;;4197170;28;20109;-34
2022/01/15 08:13:54;;;;;;;0.43;0.10;;;;;;;;;;4197549;28;20062;-35
2022/01/15 08:15:55;;;;;;;0.10;0.00;;;;;;;;;;4197482;28;20105;-34
2022/01/15 08:17:55;;;;;;;0.28;0.17;;;;;;;;;;4197326;28;20095;-34
2022/01/15 08:19:56;;;;;;;0.40;0.10;;;;;;;;;;4197178;28;20091;-35
2022/01/15 08:21:58;;;;;;;0.20;0.17;;;;;;;;;;4196525;28;20133;-34
2022/01/15 08:23:59;;;;;;;0.00;0.00;;;;;;;;;;4195790;28;20377;-32
2022/01/15 08:26:00;;;;;;;0.22;0.10;;;;;;;;;;4197203;28;20095;-35
2022/01/15 08:28:01;;;;;;;0.03;0.03;;;;;;;;;;4197046;28;20090;-38
2022/01/15 08:30:03;;;;;;;0.17;0.10;;;;;;;;;;4197413;28;20052;-32
2022/01/15 08:32:04;;;;;;;0.10;0.10;;;;;;;;;;4196967;28;20477;-33
2022/01/15 08:34:05;;;;;;;0.45;0.10;;;;;;;;;;4196961;28;20056;-34
2022/01/15 08:36:06;;;;;;;0.20;0.10;;;;;;;;;;4197137;28;20106;-33
2022/01/15 08:38:07;;;;;;;0.20;0.10;;;;;;;;;;4196439;28;20510;-32
2022/01/15 08:40:09;;;;;;;0.57;0.15;;;;;;;;;;4197041;28;20530;-35
2022/01/15 08:42:10;;;;;;;0.13;0.10;;;;;;;;;;4195846;28;20518;-36
2022/01/15 08:44:12;;;;;;;0.32;0.10;;;;;;;;;;4197020;28;20373;-36
2022/01/15 08:46:13;;;;;;;0.00;0.00;;;;;;;;;;4197016;28;20044;-34
2022/01/15 08:48:19;;;;;;;0.00;0.00;;;;;;;;;;4195542;28;20428;-33
2022/01/15 08:50:20;;;;;;;0.20;0.13;;;;;;;;;;4196970;28;20041;-35
2022/01/15 08:52:22;;;;;;;0.00;0.00;;;;;;;;;;4196462;28;20064;-34
2022/01/15 08:54:22;;;;;;;0.10;0.10;;;;;;;;;;4195725;28;20048;-37
2022/01/15 08:56:23;;;;;;;0.20;0.10;;;;;;;;;;4196879;28;20400;-32
2022/01/15 08:58:25;;;;;;;0.10;0.00;;;;;;;;;;4195903;28;20052;-39
2022/01/15 09:00:28;;;;;;;0.70;0.10;;;;;;;;;;4200005;28;20078;-35
2022/01/15 09:02:29;;;;;;;0.38;0.13;;;;;;;;;;4199733;28;20472;-35
2022/01/15 09:04:29;;;;;;;0.10;0.05;;;;;;;;;;4199938;28;20102;-37
2022/01/15 09:06:31;;;;;;;0.05;0.00;;;;;;;;;;4199954;28;20060;-34
2022/01/15 09:08:32;;;;;;;0.57;0.10;;;;;;;;;;4199343;28;20048;-37
2022/01/15 09:10:33;;;;;;;0.08;0.03;;;;;;;;;;4199988;28;20087;-32
2022/01/15 09:12:34;;;;;;;1.60;0.13;;;;;;;;;;4198569;28;20048;-37
2022/01/15 09:14:35;;;;;;;0.10;0.00;;;;;;;;;;4200106;28;20048;-36
2022/01/15 09:16:36;;;;;;;0.10;0.05;;;;;;;;;;4199936;28;20060;-36
2022/01/15 09:18:37;;;;;;;0.15;0.10;;;;;;;;;;4199960;28;20515;-34
2022/01/15 09:20:38;;;;;;;0.00;0.00;;;;;;;;;;4199569;28;20052;-34
2022/01/15 09:22:39;;;;;;;0.10;0.00;;;;;;;;;;4199104;28;20052;-36
2022/01/15 09:24:44;;;;;;;0.10;0.10;;;;;;;;;;4199545;28;20052;-34
2022/01/15 09:31:14;;;;;;;0.73;0.17;;;;;;;;;;4199583;28;20052;-33
2022/01/15 09:33:16;;;;;;;0.10;0.10;;;;;;;;;;4199493;28;20471;-35
2022/01/15 09:35:19;;;;;;;0.68;0.20;;;;;;;;;;4199409;28;20408;-36
2022/01/15 09:37:20;;;;;;;0.10;0.08;;;;;;;;;;4197677;28;20569;-36
2022/01/15 09:39:23;;;;;;;0.25;0.13;;;;;;;;;;4199364;28;20048;-34
2022/01/15 09:41:24;;;;;;;0.85;0.10;;;;;;;;;;4199590;28;20049;-34
2022/01/15 09:43:25;;;;;;;0.25;0.10;;;;;;;;;;4199256;28;20057;-36
2022/01/15 09:45:27;;;;;;;0.30;0.10;;;;;;;;;;4199185;28;20048;-35
2022/01/15 09:47:28;;;;;;;0.00;0.00;;;;;;;;;;4199001;28;20044;-34
2022/01/15 09:49:30;;;;;;;0.00;0.00;;;;;;;;;;4199284;28;20642;-36
2022/01/15 09:51:31;;;;;;;0.50;0.10;;;;;;;;;;4199203;28;20048;-36
2022/01/15 09:53:33;;;;;;;0.17;0.10;;;;;;;;;;4197439;28;20150;-34
2022/01/15 09:55:34;;;;;;;0.20;0.10;;;;;;;;;;4199224;28;20048;-35
2022/01/15 09:57:35;;;;;;;0.28;0.00;;;;;;;;;;4199069;28;20094;-34
2022/01/15 09:59:36;;;;;;;0.10;0.00;;;;;;;;;;4199279;28;20048;-38
2022/01/15 10:01:37;;;;;;;0.10;0.10;;;;;;;;;;4199053;28;20378;-34
2022/01/15 10:03:38;;;;;;;0.10;0.00;;;;;;;;;;4197754;28;20051;-35
2022/01/15 10:05:39;;;;;;;0.15;0.10;;;;;;;;;;4198927;28;20496;-34
2022/01/15 10:07:55;;;;;;;0.38;0.10;;;;;;;;;;4198430;28;20074;-35
2022/01/15 10:10:10;;;;;;;0.35;0.10;;;;;;;;;;4198427;28;20048;-32
2022/01/15 10:12:11;;;;;;;0.20;0.13;;;;;;;;;;4197442;28;20090;-35
2022/01/15 10:14:25;;;;;;;0.25;0.10;;;;;;;;;;4198825;28;20048;-34
2022/01/15 10:16:30;;;;;;;0.40;0.13;;;;;;;;;;4199092;28;20056;-37
2022/01/15 10:18:33;;;;;;;0.52;0.10;;;;;;;;;;4198986;28;20057;-32
2022/01/15 10:20:34;;;;;;;0.10;0.08;;;;;;;;;;4198710;28;20546;-34
2022/01/15 10:22:38;;;;;;;0.82;0.10;;;;;;;;;;4198062;28;20053;-33
2022/01/15 10:24:41;;;;;;;0.25;0.10;;;;;;;;;;4198613;28;20390;-33
2022/01/15 10:26:42;;;;;;;0.15;0.10;;;;;;;;;;4198696;28;20040;-32
2022/01/15 10:29:02;;;;;;;0.00;0.00;;;;;;;;;;4197370;28;20053;-35
2022/01/15 10:31:16;;;;;;;0.00;0.00;;;;;;;;;;4198651;28;20450;-32
2022/01/15 10:33:19;;;;;;;0.20;0.00;;;;;;;;;;4198819;28;20052;-35
2022/01/15 10:35:25;;;;;;;0.20;0.10;;;;;;;;;;4198788;28;20052;-37
2022/01/15 10:37:34;;;;;;;0.40;0.00;;;;;;;;;;4196759;28;20093;-35
2022/01/15 10:39:35;;;;;;;0.10;0.00;;;;;;;;;;4198429;28;20048;-34
2022/01/15 10:41:37;;;;;;;0.15;0.10;;;;;;;;;;4198214;28;20052;-36
2022/01/15 10:43:37;;;;;;;0.20;0.10;;;;;;;;;;4198154;28;20093;-33
2022/01/15 10:45:52;;;;;;;0.80;0.20;;;;;;;;;;4198346;28;20202;-35
2022/01/15 10:47:55;;;;;;;0.50;0.10;;;;;;;;;;4198097;28;20044;-35
2022/01/15 10:49:57;;;;;;;0.00;0.00;;;;;;;;;;4197291;28;20044;-36
2022/01/15 10:52:08;;;;;;;0.22;0.05;;;;;;;;;;4197729;28;20052;-31
2022/01/15 10:54:09;;;;;;;0.55;0.10;;;;;;;;;;4198471;28;20052;-35
2022/01/15 10:56:11;;;;;;;0.20;0.10;;;;;;;;;;4198116;28;20102;-37
2022/01/15 10:58:13;;;;;;;0.47;0.10;;;;;;;;;;4198367;28;20052;-34
2022/01/15 11:00:27;;;;;;;0.25;0.10;;;;;;;;;;4198333;28;20378;-32
2022/01/15 11:02:29;;;;;;;0.30;0.10;;;;;;;;;;4198095;28;20095;-33
2022/01/15 11:04:34;;;;;;;0.65;0.10;;;;;;;;;;4197959;28;20485;-32
2022/01/15 11:06:35;;;;;;;0.08;0.00;;;;;;;;;;4198231;28;20053;-35
2022/01/15 11:08:38;;;;;;;0.00;0.00;;;;;;;;;;4197487;28;20451;-33
2022/01/15 11:11:00;;;;;;;0.10;0.10;;;;;;;;;;4197940;28;20089;-32
2022/01/15 11:13:04;;;;;;;0.45;0.00;;;;;;;;;;4197686;28;20048;-33
2022/01/15 11:15:06;;;;;;;0.20;0.17;;;;;;;;;;4198041;28;20111;-35
2022/01/15 11:17:07;;;;;;;0.08;0.00;;;;;;;;;;4197950;28;20169;-32
2022/01/15 11:19:08;;;;;;;0.17;0.10;;;;;;;;;;4198075;28;20055;-36
2022/01/15 11:21:10;;;;;;;0.52;0.17;;;;;;;;;;4197842;28;20534;-33
2022/01/15 11:23:12;;;;;;;0.55;0.10;;;;;;;;;;4196909;28;20060;-34
2022/01/15 11:25:13;;;;;;;0.10;0.05;;;;;;;;;;4197782;28;20473;-33
2022/01/15 11:27:14;;;;;;;0.60;0.22;;;;;;;;;;4197548;28;20469;-34
2022/01/15 11:29:16;;;;;;;0.03;0.03;;;;;;;;;;4197662;28;20052;-35
2022/01/15 11:31:25;;;;;;;0.30;0.10;;;;;;;;;;4197661;28;20056;-31
2022/01/15 11:33:31;;;;;;;0.10;0.08;;;;;;;;;;4197658;28;20205;-33
2022/01/15 11:35:40;;;;;;;0.35;0.08;;;;;;;;;;4197695;28;20450;-32
2022/01/15 11:37:47;;;;;;;0.05;0.00;;;;;;;;;;4197194;28;20049;-33
2022/01/15 11:39:52;;;;;;;0.43;0.30;;;;;;;;;;4196625;28;20048;-33
2022/01/15 11:41:53;;;;;;;0.22;0.10;;;;;;;;;;4196036;28;20385;-32
2022/01/15 11:43:58;;;;;;;0.10;0.10;;;;;;;;;;4197813;28;20048;-33
2022/01/15 11:46:03;;;;;;;0.30;0.00;;;;;;;;;;4196525;28;20106;-31
2022/01/15 11:48:20;;;;;;;0.13;0.10;;;;;;;;;;4197399;28;20550;-33
2022/01/15 11:50:26;;;;;;;0.70;0.20;;;;;;;;;;4197766;28;20052;-33
2022/01/15 11:52:31;;;;;;;0.30;0.10;;;;;;;;;;4196946;28;20484;-36
2022/01/15 11:54:32;;;;;;;0.85;0.10;;;;;;;;;;4197462;28;20051;-35
2022/01/15 11:56:38;;;;;;;0.32;0.10;;;;;;;;;;4197268;28;20493;-34
2022/01/15 11:58:39;;;;;;;0.35;0.17;;;;;;;;;;4197345;28;20432;-35
2022/01/15 12:00:43;;;;;;;0.38;0.10;;;;;;;;;;4197366;28;20063;-32
2022/01/15 12:03:01;;;;;;;0.10;0.10;;;;;;;;;;4197470;28;20079;-37
2022/01/15 12:05:14;;;;;;;0.47;0.00;;;;;;;;;;4197415;28;20040;-33
2022/01/15 12:07:15;;;;;;;0.28;0.10;;;;;;;;;;4196825;28;20049;-36
2022/01/15 12:09:36;;;;;;;0.08;0.03;;;;;;;;;;4197371;28;20053;-33
2022/01/15 12:11:37;;;;;;;0.20;0.10;;;;;;;;;;4197220;28;20048;-32
2022/01/15 12:13:43;;;;;;;0.00;0.00;;;;;;;;;;4197362;28;20094;-32
2022/01/15 12:15:44;;;;;;;0.10;0.08;;;;;;;;;;4197236;28;20049;-35
2022/01/15 12:17:50;;;;;;;0.38;0.00;;;;;;;;;;4197082;28;20052;-33
2022/01/15 12:19:52;;;;;;;0.30;0.10;;;;;;;;;;4197586;28;20056;-35
2022/01/15 12:21:55;;;;;;;2.00;0.10;;;;;;;;;;4196583;28;20396;-32
2022/01/15 12:23:56;;;;;;;0.10;0.05;;;;;;;;;;4197070;28;20056;-37
2022/01/15 12:25:57;;;;;;;0.30;0.13;;;;;;;;;;4197273;28;20400;-33
2022/01/15 12:27:58;;;;;;;0.10;0.00;;;;;;;;;;4197253;28;20107;-35
2022/01/15 12:30:11;;;;;;;0.20;0.10;;;;;;;;;;4197283;28;20476;-33
2022/01/15 12:32:25;;;;;;;0.10;0.05;;;;;;;;;;4197012;28;20052;-33
2022/01/15 12:34:27;;;;;;;0.03;0.00;;;;;;;;;;4198947;28;20545;-36
2022/01/15 12:36:28;;;;;;;0.10;0.10;;;;;;;;;;4199276;28;20060;-34